Flight Track Log - Related Links

Times and Time Zones

All times are in EDT time to prevent confusion due to time zone crossing. See the SWA385 flight status page for this flight to view local times or setup timezone preferences in your user account.

Time Position Orientation Groundspeed Altitude Reporting Facility
EDT Latitude Longitude Course Direction KTS MPH feet Rate Location/Type
Tue 05:25:45 PM 38.9333 -77.5333 270° West 198 228 2,500  Level Potomac TRACON
Tue 05:26:46 PM 38.9333 -77.6333 270° West 246 283 4,700 2,217 Climbing Potomac TRACON
Tue 05:27:17 PM 38.9328 -77.6758 269° West 266 306 5,900 2,870 Climbing Washington Center
Tue 05:28:18 PM 38.9372 -77.7772 273° West 292 336 9,100 3,124 Climbing Washington Center
Tue 05:29:18 PM 38.9417 -77.8842 273° West 298 343 12,200 2,695 Climbing Washington Center
Tue 05:30:16 PM 38.9478 -77.9992 274° West 316 364 14,400 2,644 Climbing Washington Center
Tue 05:31:00 PM 38.9500 -78.2289 270° West  Level FlightAware Approximate
Tue 05:31:16 PM 38.9556 -78.1303 274° West 345 397 17,400  Level Washington Center
Tue 05:32:18 PM 38.9628 -78.2667 274° West 370 426 19,700 2,459 Climbing Washington Center
Tue 05:33:18 PM 38.9658 -78.4136 272° West 396 456 22,400 2,593 Climbing Washington Center
Tue 05:34:16 PM 38.9706 -78.5606 272° West 411 473 24,800 2,319 Climbing Washington Center
Tue 05:35:17 PM 38.9750 -78.7156 272° West 428 493 27,000 2,033 Climbing Washington Center
Tue 05:36:17 PM 38.9792 -78.8761 272° West 441 507 28,900 1,736 Climbing Washington Center
Tue 05:37:18 PM 38.9869 -79.0367 274° West 446 513 30,500 1,636 Climbing Washington Center
Tue 05:38:18 PM 38.9989 -79.2028 275° West 463 533 32,200 1,271 Climbing Washington Center
Tue 05:39:16 PM 39.0125 -79.3719 276° West 468 539 33,000 407 Climbing Washington Center
Tue 05:40:16 PM 39.0236 -79.5408 275° West 473 544 33,000 793 Level Washington Center
Tue 05:41:17 PM 39.0408 -79.7100 278° West 480 552 34,600 1,636 Climbing Washington Center
Tue 05:42:17 PM 39.0519 -79.8711 275° West 475 547 36,300 1,714 Climbing Washington Center
Tue 05:42:48 PM 39.0544 -79.9575 272° West 459 528 37,200 1,548 Climbing Indianapolis Center
Tue 05:43:50 PM 39.0656 -80.1183 275° West 462 532 38,700 1,306 Climbing Indianapolis Center
Tue 05:44:52 PM 39.0764 -80.2786 275° West 456 525 39,900 629 Climbing Indianapolis Center
Tue 05:45:54 PM 39.0883 -80.4400 275° West 454 522 40,000 48 Climbing Indianapolis Center
Tue 05:46:56 PM 39.0975 -80.6014 274° West 453 521 40,000  Level Indianapolis Center
Tue 05:47:58 PM 39.1192 -80.7942 278° West 458 527 40,000  Level Indianapolis Center
Tue 05:49:00 PM 39.1811 -80.9328 300° West 452 520 40,000  Level Indianapolis Center
Tue 05:50:02 PM 39.2428 -81.0744 299° West 454 522 40,000  Level Indianapolis Center
Tue 05:51:04 PM 39.3061 -81.2153 300° West 458 527 40,000  Level Indianapolis Center
Tue 05:52:06 PM 39.3703 -81.3564 300° West 459 528 40,000  Level Indianapolis Center
Tue 05:53:08 PM 39.4331 -81.4983 300° West 458 527 40,000  Level Indianapolis Center
Tue 05:54:10 PM 39.5089 -81.6708 300° West 461 531 40,000  Level Indianapolis Center
Tue 05:55:12 PM 39.5725 -81.8133 300° West 458 527 40,000  Level Indianapolis Center
Tue 05:56:14 PM 39.6347 -81.9581 299° West 460 529 40,000  Level Indianapolis Center
Tue 05:57:16 PM 39.6992 -82.1014 300° West 461 531 40,000 -48 Level Indianapolis Center
Tue 05:58:18 PM 39.7681 -82.2603 299° West 464 534 39,900 -48 Descending Indianapolis Center
Tue 05:59:20 PM 39.8317 -82.4083 299° West 467 537 39,900  Level Indianapolis Center
Tue 06:00:22 PM 39.8964 -82.5572 300° West 468 539 39,900  Level Indianapolis Center
Tue 06:01:24 PM 39.9589 -82.7033 299° West 462 532 39,900  Level Indianapolis Center
Tue 06:02:26 PM 40.0211 -82.8489 299° West 459 528 39,900  Level Indianapolis Center
Tue 06:03:28 PM 40.0933 -83.0192 299° West 458 527 39,900  Level Indianapolis Center
Tue 06:04:30 PM 40.1547 -83.1656 299° West 459 528 39,900  Level Indianapolis Center
Tue 06:05:31 PM 40.2169 -83.3117 299° West 460 529 39,900  Level Indianapolis Center
Tue 06:06:33 PM 40.2786 -83.4600 299° West 463 533 39,900  Level Indianapolis Center
Tue 06:07:35 PM 40.3414 -83.6100 299° West 467 537 39,900  Level Indianapolis Center
Tue 06:08:37 PM 40.4025 -83.7600 298° West 466 536 39,900 -339 Level Indianapolis Center
Tue 06:09:39 PM 40.4736 -83.9336 298° West 462 532 39,200 -823 Descending Indianapolis Center
Tue 06:10:41 PM 40.5350 -84.0814 299° West 459 528 38,200 -919 Descending Indianapolis Center
Tue 06:11:43 PM 40.5967 -84.2322 298° West 464 534 37,300 -1,935 Descending Indianapolis Center
Tue 06:12:45 PM 40.6583 -84.3828 298° West 465 535 34,200 -3,194 Descending Indianapolis Center
Tue 06:13:47 PM 40.7214 -84.5392 298° West 477 549 30,700 -2,081 Descending Indianapolis Center
Tue 06:14:49 PM 40.7828 -84.6931 298° West 472 543 29,900 -390 Descending Indianapolis Center
Tue 06:15:50 PM 40.8442 -84.8478 298° West 471 542 29,900 49 Level Indianapolis Center
Tue 06:16:52 PM 40.9036 -84.9967 298° West 462 532 30,000 -145 Climbing Indianapolis Center
Tue 06:17:54 PM 40.9817 -85.1758 300° West 470 541 29,600 -624 Descending Indianapolis Center
Tue 06:18:57 PM 41.0889 -85.2728 326° Northwest 475 547 28,700 -919 Descending Indianapolis Center
Tue 06:19:58 PM 41.2019 -85.3633 329° Northwest 478 550 27,700 -976 Descending Indianapolis Center
Tue 06:21:00 PM 41.3142 -85.4517 329° Northwest 474 545 26,700 -1,113 Descending Indianapolis Center
Tue 06:22:02 PM 41.4211 -85.5367 329° Northwest 455 524 25,400 -1,790 Descending Indianapolis Center
Tue 06:23:04 PM 41.5100 -85.6381 320° Northwest 439 505 23,000 -2,468 Descending Indianapolis Center
Tue 06:24:06 PM 41.5192 -85.8164 274° West 411 473 20,300 -2,341 Descending Indianapolis Center
Tue 06:25:07 PM 41.5233 -85.9603 272° West 397 457 18,200 -2,106 Descending Indianapolis Center
Tue 06:26:37 PM 41.5236 -86.1528 270° West 375 432 15,000 -2,171 Descending Chicago Center
Tue 06:27:39 PM 41.5231 -86.2886 270° West 366 421 12,700 -1,887 Descending Chicago Center
Tue 06:28:41 PM 41.5228 -86.4442 270° West 351 404 11,100 -1,210 Descending Chicago Center
Tue 06:29:43 PM 41.5219 -86.5678 270° West 336 387 10,200 -484 Descending Chicago Center
Tue 06:30:45 PM 41.5203 -86.6825 269° West 313 360 10,100 -48 Descending Chicago Center
Tue 06:31:47 PM 41.5197 -86.7953 270° West 287 330 10,100 -194 Level Chicago Center
Tue 06:32:49 PM 41.5186 -86.9003 269° West 286 329 9,700 -774 Descending Chicago Center
Tue 06:33:51 PM 41.5219 -87.0022 273° West 279 321 8,500 -1,113 Descending Chicago Center
Tue 06:34:53 PM 41.5475 -87.1008 289° West 282 325 7,400 -1,113 Descending Chicago Center
Tue 06:35:55 PM 41.5758 -87.2167 288° West 277 319 6,200 -1,065 Descending Chicago Center
Tue 06:36:57 PM 41.5981 -87.3128 287° West 275 316 5,200 -960 Descending Chicago Center
Tue 06:38:00 PM 41.6211 -87.4078 288° West 273 314 4,200 -576 Descending Chicago Center
Tue 06:39:02 PM 41.6428 -87.5006 287° West 269 310 4,000 -97 Descending Chicago Center
Tue 06:40:04 PM 41.6736 -87.5983 293° West 253 291 4,000 -532 Level Chicago Center
Tue 06:41:06 PM 41.7142 -87.6508 316° Northwest 222 255 2,900 -919 Descending Chicago Center
Tue 06:42:08 PM 41.7553 -87.6708 340° North 196 226 2,100 -484 Descending Chicago Center
Tue 06:43:10 PM 41.7961 -87.6619 North 174 200 1,900 -290 Descending Chicago Center
Tue 06:44:12 PM 41.8175 -87.7031 305° West 151 174 1,500 -435 Descending Chicago Center
Tue 06:45:14 PM 41.7944 -87.7453 234° Southwest 139 160 1,000 -484 Descending Chicago Center

Login

Don't have an account? Register now (free) for customized features, flight alerts, and more!